Time;durP1;ratioP1;P1;durP2;ratioP2;P2;SDS_P1;SDS_P2;PMS_P1;PMS_P2;Temp;Humidity;BMP_temperature;BMP_pressure;BME280_temperature;BME280_humidity;BME280_pressure;Samples;Min_cycle;Max_cycle;Signal;HPM_P1;HPM_P2
2023/12/02 00:01:49;;;;;;;6.43;5.05;;;19.00;63.90;;;;;;5093003;28;20047;-31
2023/12/02 00:04:17;;;;;;;6.35;5.00;;;20.40;60.80;;;;;;5076802;28;20198;-30
2023/12/02 00:06:44;;;;;;;6.18;5.18;;;;;;;;;;5072386;28;20060;-29
2023/12/02 00:09:11;;;;;;;6.30;5.13;;;19.20;64.00;;;;;;5072796;28;20105;-33
2023/12/02 00:11:38;;;;;;;7.18;5.75;;;19.20;58.20;;;;;;5072718;28;20049;-31
2023/12/02 00:14:05;;;;;;;7.57;5.05;;;18.90;64.60;;;;;;5072402;28;20094;-30
2023/12/02 00:16:32;;;;;;;6.85;5.25;;;;;;;;;;5072272;28;20098;-30
2023/12/02 00:18:59;;;;;;;6.47;5.20;;;19.00;62.30;;;;;;5072245;28;20052;-32
2023/12/02 00:21:27;;;;;;;7.22;5.15;;;18.90;44.20;;;;;;5090994;28;20117;-29
2023/12/02 00:23:54;;;;;;;6.82;5.05;;;;;;;;;;5092710;28;20056;-29
2023/12/02 00:26:21;;;;;;;6.55;5.38;;;19.80;64.90;;;;;;5092385;28;20101;-30
2023/12/02 00:28:48;;;;;;;6.75;5.18;;;;;;;;;;5079704;28;20048;-29
2023/12/02 00:31:15;;;;;;;6.22;5.10;;;19.60;64.80;;;;;;5072379;28;20057;-31
2023/12/02 00:33:42;;;;;;;6.35;5.00;;;;;;;;;;5085270;28;20052;-30
2023/12/02 00:36:10;;;;;;;6.07;4.72;;;17.80;63.90;;;;;;5091020;28;20439;-31
2023/12/02 00:38:38;;;;;;;6.85;5.45;;;18.80;53.40;;;;;;5092470;28;20101;-28
2023/12/02 00:41:06;;;;;;;6.22;5.13;;;18.70;44.30;;;;;;5092236;28;20497;-30
2023/12/02 00:43:33;;;;;;;6.63;5.28;;;18.60;57.90;;;;;;5091940;28;20090;-29
2023/12/02 00:46:00;;;;;;;6.13;5.00;;;;;;;;;;5092083;28;20090;-31
2023/12/02 00:48:27;;;;;;;6.13;5.03;;;18.00;55.80;;;;;;5092431;28;20051;-30
2023/12/02 00:50:54;;;;;;;6.65;5.18;;;;;;;;;;5092009;28;20121;-30
2023/12/02 00:53:21;;;;;;;6.72;5.43;;;18.60;45.50;;;;;;5090719;28;20044;-28
2023/12/02 00:55:49;;;;;;;6.55;5.30;;;18.70;61.40;;;;;;5092152;28;20113;-31
2023/12/02 00:58:16;;;;;;;6.75;5.57;;;18.50;65.20;;;;;;5091602;28;20056;-31
2023/12/02 01:00:43;;;;;;;6.30;5.03;;;;;;;;;;5091971;28;20071;-29
2023/12/02 01:03:10;;;;;;;6.65;5.35;;;;;;;;;;5092011;28;20044;-32
2023/12/02 01:05:37;;;;;;;7.30;5.75;;;;;;;;;;5082396;28;20098;-29
2023/12/02 01:08:05;;;;;;;7.80;5.47;;;18.70;65.10;;;;;;5071436;28;20048;-31
2023/12/02 01:10:31;;;;;;;6.63;5.38;;;18.50;51.70;;;;;;5071679;28;20055;-32
2023/12/02 01:13:00;;;;;;;7.45;5.50;;;18.50;55.90;;;;;;5071687;28;20049;-31
2023/12/02 01:15:26;;;;;;;6.70;4.97;;;18.60;64.80;;;;;;5071743;28;20049;-31
2023/12/02 01:17:54;;;;;;;6.65;5.20;;;;;;;;;;5071484;28;20049;-29
2023/12/02 01:20:20;;;;;;;7.45;5.32;;;18.00;64.70;;;;;;5071581;28;20049;-28
2023/12/02 01:22:47;;;;;;;7.38;5.28;;;18.70;65.10;;;;;;5071612;28;20076;-32
2023/12/02 01:25:14;;;;;;;6.18;4.93;;;18.80;65.30;;;;;;5071399;28;20048;-28
2023/12/02 01:27:41;;;;;;;6.70;5.07;;;17.80;64.40;;;;;;5071311;28;20049;-32
2023/12/02 01:30:11;;;;;;;6.15;4.68;;;19.40;50.40;;;;;;5085780;28;20441;-33
2023/12/02 01:32:37;;;;;;;5.70;4.75;;;18.70;61.20;;;;;;5092045;28;20086;-29
2023/12/02 01:35:05;;;;;;;5.95;4.63;;;18.90;55.80;;;;;;5095504;28;20059;-30
2023/12/02 01:37:32;;;;;;;6.15;5.10;;;20.40;57.20;;;;;;5095281;28;20100;-34
2023/12/02 01:39:58;;;;;;;5.45;4.63;;;18.70;63.20;;;;;;5095780;28;20052;-34
2023/12/02 01:42:25;;;;;;;5.78;4.82;;;17.90;64.20;;;;;;5095603;28;20094;-31
2023/12/02 01:44:52;;;;;;;5.53;4.68;;;;;;;;;;5095788;28;20062;-28
2023/12/02 01:47:21;;;;;;;5.95;4.70;;;19.10;64.60;;;;;;5095612;28;20055;-33
2023/12/02 01:49:47;;;;;;;6.88;4.88;;;18.10;64.40;;;;;;5095561;28;20052;-30
2023/12/02 01:52:15;;;;;;;6.13;4.60;;;;;;;;;;5094944;28;20044;-28
2023/12/02 01:54:41;;;;;;;6.30;4.90;;;19.60;65.00;;;;;;5095307;28;20052;-35
2023/12/02 01:57:09;;;;;;;5.70;4.82;;;;;;;;;;5095377;28;20048;-30
2023/12/02 01:59:35;;;;;;;5.88;4.35;;;18.60;64.30;;;;;;5095500;28;20040;-30
2023/12/02 02:02:02;;;;;;;5.10;4.13;;;18.90;64.20;;;;;;5095433;28;20098;-30
2023/12/02 02:04:31;;;;;;;5.30;4.43;;;18.40;46.70;;;;;;5095019;28;20052;-29
2023/12/02 02:06:57;;;;;;;5.13;4.22;;;20.10;64.40;;;;;;5095101;28;20501;-32
2023/12/02 02:09:24;;;;;;;5.85;4.68;;;19.40;64.60;;;;;;5094459;28;20105;-31
2023/12/02 02:11:51;;;;;;;5.43;4.50;;;19.40;54.80;;;;;;5095455;28;20409;-30
2023/12/02 02:14:18;;;;;;;5.28;4.28;;;19.40;64.10;;;;;;5095146;28;20558;-35
2023/12/02 02:16:45;;;;;;;5.40;4.28;;;;;;;;;;5092941;28;20052;-28
2023/12/02 02:19:12;;;;;;;5.63;4.60;;;19.50;64.00;;;;;;5094852;28;20497;-32
2023/12/02 02:21:40;;;;;;;6.47;5.13;;;18.60;48.30;;;;;;5094984;28;20667;-31
2023/12/02 02:24:07;;;;;;;5.15;4.20;;;;;;;;;;5094491;28;20586;-28
2023/12/02 02:26:34;;;;;;;5.45;4.32;;;20.00;64.40;;;;;;5093612;28;20125;-29
2023/12/02 02:29:01;;;;;;;5.15;4.20;;;;;;;;;;5094700;28;20457;-30
2023/12/02 02:31:28;;;;;;;5.72;4.78;;;18.80;52.60;;;;;;5094913;28;20043;-32
2023/12/02 02:33:55;;;;;;;6.63;5.00;;;19.40;64.20;;;;;;5094753;28;20489;-30
2023/12/02 02:36:22;;;;;;;6.13;4.85;;;19.50;48.30;;;;;;5093881;28;20048;-31
2023/12/02 02:38:50;;;;;;;5.32;4.30;;;19.70;64.10;;;;;;5094906;28;20055;-32
2023/12/02 02:41:17;;;;;;;6.28;4.57;;;19.60;52.60;;;;;;5091783;28;20492;-30
2023/12/02 02:43:44;;;;;;;6.20;4.68;;;;;;;;;;5074427;28;20048;-29
2023/12/02 02:46:11;;;;;;;5.50;4.38;;;19.90;64.00;;;;;;5073600;28;20053;-31
2023/12/02 02:48:38;;;;;;;5.88;4.90;;;;;;;;;;5074147;28;20045;-28
2023/12/02 02:51:05;;;;;;;5.97;4.47;;;19.60;49.20;;;;;;5074196;28;20057;-31
2023/12/02 02:53:33;;;;;;;5.72;4.53;;;;;;;;;;5073938;28;20556;-28
2023/12/02 02:56:01;;;;;;;5.45;4.30;;;19.70;63.90;;;;;;5078888;28;20500;-30
2023/12/02 02:58:29;;;;;;;5.35;4.40;;;20.20;63.00;;;;;;5086918;28;20053;-31
2023/12/02 03:00:56;;;;;;;5.20;4.40;;;19.90;63.70;;;;;;5074124;28;20052;-30
2023/12/02 03:03:23;;;;;;;6.90;4.43;;;19.70;63.90;;;;;;5073776;28;20044;-30
2023/12/02 03:05:50;;;;;;;5.15;4.30;;;;;;;;;;5073936;28;20052;-33
2023/12/02 03:08:17;;;;;;;5.18;4.22;;;19.70;55.90;;;;;;5073794;28;20102;-29
2023/12/02 03:10:44;;;;;;;6.28;4.43;;;19.80;63.60;;;;;;5074027;28;20052;-33
2023/12/02 03:13:12;;;;;;;5.00;4.30;;;19.80;43.70;;;;;;5073983;28;20390;-29
2023/12/02 03:15:39;;;;;;;5.28;4.35;;;19.70;47.50;;;;;;5074676;28;20045;-30
2023/12/02 03:18:06;;;;;;;6.22;4.57;;;;;;;;;;5073416;28;20109;-31
2023/12/02 03:20:34;;;;;;;5.13;4.10;;;20.10;48.40;;;;;;5073284;28;20052;-30
2023/12/02 03:23:00;;;;;;;4.97;4.05;;;19.80;63.80;;;;;;5091048;28;20126;-32
2023/12/02 03:25:27;;;;;;;5.40;4.30;;;19.80;46.70;;;;;;5093776;28;20048;-29
2023/12/02 03:27:54;;;;;;;5.95;4.57;;;;;;;;;;5093724;28;20051;-31
2023/12/02 03:30:23;;;;;;;5.60;4.40;;;19.80;43.70;;;;;;5093732;28;20052;-27
2023/12/02 03:32:50;;;;;;;5.97;4.63;;;;;;;;;;5077083;28;20087;-33
2023/12/02 03:35:17;;;;;;;5.03;4.00;;;19.80;63.50;;;;;;5073350;28;20555;-29
2023/12/02 03:37:44;;;;;;;5.15;4.40;;;;;;;;;;5088376;28;20052;-31
2023/12/02 03:40:11;;;;;;;5.55;4.10;;;19.90;63.40;;;;;;5083496;28;20501;-35
2023/12/02 03:42:38;;;;;;;5.43;4.20;;;19.60;63.70;;;;;;5073189;28;20057;-33
2023/12/02 03:45:06;;;;;;;5.75;4.20;;;19.80;63.70;;;;;;5072931;28;20052;-31
2023/12/02 03:47:34;;;;;;;5.10;4.15;;;20.00;54.90;;;;;;5074048;28;20050;-30
2023/12/02 03:50:01;;;;;;;5.65;4.35;;;19.90;63.60;;;;;;5073170;28;20101;-33
2023/12/02 03:52:28;;;;;;;5.40;4.20;;;19.90;50.80;;;;;;5072916;28;20052;-30
2023/12/02 03:54:55;;;;;;;4.72;4.18;;;19.80;63.70;;;;;;5073093;28;20098;-31
2023/12/02 03:57:22;;;;;;;4.97;4.20;;;19.90;45.80;;;;;;5087859;28;20054;-30
2023/12/02 03:59:50;;;;;;;5.93;4.70;;;19.80;63.40;;;;;;5092949;28;20052;-30
2023/12/02 04:02:17;;;;;;;4.65;4.00;;;20.50;46.80;;;;;;5093316;28;20062;-30
2023/12/02 04:04:45;;;;;;;5.05;4.05;;;19.80;43.50;;;;;;5083968;28;20045;-31
2023/12/02 04:07:12;;;;;;;4.90;4.20;;;;;;;;;;5072425;28;20048;-31
2023/12/02 04:09:39;;;;;;;5.75;4.60;;;18.90;50.10;;;;;;5072549;28;20102;-32
2023/12/02 04:12:06;;;;;;;5.32;4.28;;;19.90;63.80;;;;;;5072613;28;20056;-29
2023/12/02 04:14:33;;;;;;;5.75;4.50;;;20.10;50.80;;;;;;5072472;28;20040;-29
2023/12/02 04:17:01;;;;;;;6.70;4.30;;;21.00;47.10;;;;;;5072257;28;20048;-33
2023/12/02 04:19:28;;;;;;;5.25;3.85;;;19.90;48.40;;;;;;5091599;28;20079;-31
2023/12/02 04:21:56;;;;;;;5.88;4.50;;;19.90;43.60;;;;;;5080815;28;20088;-29
2023/12/02 04:24:24;;;;;;;5.13;4.28;;;21.00;54.10;;;;;;5072293;28;20493;-30
2023/12/02 04:26:51;;;;;;;5.43;4.47;;;19.80;63.60;;;;;;5072061;28;20123;-32
2023/12/02 04:29:18;;;;;;;5.35;4.40;;;19.90;45.00;;;;;;5073805;28;20098;-32
2023/12/02 04:31:45;;;;;;;4.93;4.10;;;19.40;63.20;;;;;;5084468;28;20048;-32
2023/12/02 04:34:12;;;;;;;5.80;3.90;;;20.40;56.70;;;;;;5072341;28;20090;-30
2023/12/02 04:36:38;;;;;;;5.88;4.07;;;19.90;63.40;;;;;;5078263;28;20060;-31
2023/12/02 04:39:11;;;;;;;6.47;4.40;;;20.50;43.90;;;;;;5092338;28;20562;-29
2023/12/02 04:41:38;;;;;;;4.97;3.90;;;20.00;52.00;;;;;;5092371;28;20131;-32
2023/12/02 04:44:05;;;;;;;5.05;4.22;;;19.80;63.30;;;;;;5092361;28;20094;-32
2023/12/02 04:46:32;;;;;;;5.07;3.92;;;19.80;63.60;;;;;;5091447;28;20518;-32
2023/12/02 04:48:59;;;;;;;5.60;4.07;;;19.90;63.40;;;;;;5091638;28;20132;-26
2023/12/02 04:51:26;;;;;;;5.53;4.22;;;19.90;55.20;;;;;;5092281;28;20112;-26
2023/12/02 04:53:53;;;;;;;4.88;4.10;;;20.00;49.50;;;;;;5092042;28;20044;-26
2023/12/02 04:56:21;;;;;;;4.85;4.28;;;19.90;43.50;;;;;;5091838;28;20409;-27
2023/12/02 04:58:48;;;;;;;4.30;3.70;;;;;;;;;;5091942;28;20048;-30
2023/12/02 05:01:15;;;;;;;5.38;4.00;;;19.70;44.90;;;;;;5089997;28;20047;-26
2023/12/02 05:03:42;;;;;;;4.65;4.00;;;;;;;;;;5073227;28;20110;-29
2023/12/02 05:06:13;;;;;;;5.30;4.22;;;20.00;43.50;;;;;;5071556;28;20107;-27
2023/12/02 05:08:39;;;;;;;6.05;4.00;;;19.90;63.40;;;;;;5083618;28;20069;-26
2023/12/02 05:11:07;;;;;;;4.63;3.85;;;20.00;43.50;;;;;;5092089;28;20063;-30
2023/12/02 05:13:35;;;;;;;5.03;4.10;;;19.80;63.70;;;;;;5091993;28;20051;-27
2023/12/02 05:16:02;;;;;;;5.13;3.80;;;20.00;63.50;;;;;;5090832;28;20105;-26
2023/12/02 05:18:30;;;;;;;5.38;4.32;;;19.90;63.70;;;;;;5091690;28;20048;-33
2023/12/02 05:20:57;;;;;;;5.40;4.18;;;20.00;50.30;;;;;;5091752;28;20060;-32
2023/12/02 05:23:24;;;;;;;6.97;4.40;;;20.00;63.50;;;;;;5091815;28;20048;-32
2023/12/02 05:25:51;;;;;;;4.38;3.63;;;;;;;;;;5091958;28;20052;-28
2023/12/02 05:28:18;;;;;;;4.90;4.22;;;19.80;63.50;;;;;;5091578;28;20109;-33
2023/12/02 05:30:46;;;;;;;4.78;3.92;;;20.50;46.90;;;;;;5090682;28;20052;-32
2023/12/02 05:33:14;;;;;;;4.30;3.70;;;;;;;;;;5071351;28;20052;-30
2023/12/02 05:35:41;;;;;;;6.38;4.00;;;;;;;;;;5071403;28;20048;-31
2023/12/02 05:38:08;;;;;;;7.00;4.35;;;21.00;63.80;;;;;;5089065;28;20040;-29
2023/12/02 05:40:34;;;;;;;5.15;3.88;;;20.00;63.70;;;;;;5091747;28;20044;-32
2023/12/02 05:43:02;;;;;;;5.65;4.15;;;;;;;;;;5091484;28;20059;-31
2023/12/02 05:45:29;;;;;;;5.10;4.03;;;20.00;60.30;;;;;;5091554;28;20055;-31
2023/12/02 05:47:57;;;;;;;5.13;3.80;;;20.00;63.30;;;;;;5081650;28;20470;-28
2023/12/02 05:50:24;;;;;;;4.55;3.85;;;21.10;64.20;;;;;;5071244;28;20090;-30
2023/12/02 05:52:51;;;;;;;4.38;3.80;;;20.00;63.70;;;;;;5071618;28;20448;-30
2023/12/02 05:55:18;;;;;;;4.18;3.53;;;;;;;;;;5071110;28;20559;-29
2023/12/02 05:57:45;;;;;;;4.93;3.97;;;20.00;63.30;;;;;;5090870;28;20048;-30
2023/12/02 06:00:13;;;;;;;6.05;3.95;;;20.00;43.50;;;;;;5091298;28;20044;-32
2023/12/02 06:02:40;;;;;;;4.32;3.70;;;;;;;;;;5091145;28;20529;-29
2023/12/02 06:05:09;;;;;;;5.60;4.22;;;20.10;63.60;;;;;;5077567;28;20485;-30
2023/12/02 06:07:36;;;;;;;5.20;3.95;;;;;;;;;;5071239;28;20136;-30
2023/12/02 06:10:03;;;;;;;4.93;3.88;;;20.00;63.40;;;;;;5074392;28;20052;-33
2023/12/02 06:12:31;;;;;;;4.82;3.75;;;;;;;;;;5091439;28;20052;-27
2023/12/02 06:14:57;;;;;;;5.07;4.00;;;19.90;45.50;;;;;;5091353;28;20101;-31
2023/12/02 06:17:25;;;;;;;4.53;3.80;;;;;;;;;;5090787;28;20048;-28
2023/12/02 06:19:51;;;;;;;4.60;3.72;;;20.00;63.20;;;;;;5091266;28;20106;-33
2023/12/02 06:22:20;;;;;;;4.30;3.70;;;20.00;43.40;;;;;;5074801;28;20052;-28
2023/12/02 06:24:47;;;;;;;4.82;3.92;;;;;;;;;;5074597;28;20562;-29
2023/12/02 06:27:14;;;;;;;5.13;4.00;;;;;;;;;;5074471;28;20455;-31
2023/12/02 06:29:41;;;;;;;4.20;3.60;;;20.00;49.90;;;;;;5074531;28;20052;-31
2023/12/02 06:32:08;;;;;;;5.43;4.20;;;20.10;47.40;;;;;;5074505;28;20048;-30
2023/12/02 06:34:34;;;;;;;4.40;3.72;;;19.50;62.80;;;;;;5074823;28;20499;-31
2023/12/02 06:37:01;;;;;;;4.53;3.70;;;19.70;46.20;;;;;;5078712;28;20489;-28
2023/12/02 06:39:30;;;;;;;4.72;3.80;;;20.00;63.30;;;;;;5074375;28;20048;-32
2023/12/02 06:41:56;;;;;;;4.68;3.60;;;19.90;63.20;;;;;;5074473;28;20052;-26
2023/12/02 06:44:23;;;;;;;4.75;3.97;;;19.90;44.50;;;;;;5073946;28;20118;-28
2023/12/02 06:46:50;;;;;;;5.28;4.13;;;21.00;51.10;;;;;;5074354;28;20456;-31
2023/12/02 06:49:17;;;;;;;5.20;3.78;;;20.10;63.40;;;;;;5074156;28;20705;-31
2023/12/02 06:51:44;;;;;;;4.30;3.65;;;20.80;58.20;;;;;;5074357;28;20052;-31
2023/12/02 06:54:11;;;;;;;5.20;3.90;;;;;;;;;;5075423;28;20110;-34
2023/12/02 06:56:40;;;;;;;4.45;3.70;;;20.00;59.30;;;;;;5083982;28;20044;-33
2023/12/02 06:59:08;;;;;;;4.32;3.90;;;;;;;;;;5094286;28;20059;-28
2023/12/02 07:01:35;;;;;;;4.85;3.67;;;20.30;63.80;;;;;;5094497;28;20147;-31
2023/12/02 07:04:02;;;;;;;5.88;3.83;;;;;;;;;;5094118;28;20569;-28
2023/12/02 07:06:29;;;;;;;4.47;3.55;;;20.00;63.70;;;;;;5094045;28;20048;-32
2023/12/02 07:08:56;;;;;;;4.25;3.60;;;;;;;;;;5093726;28;20108;-28
2023/12/02 07:11:23;;;;;;;4.03;3.63;;;20.00;63.50;;;;;;5078688;28;20056;-31
2023/12/02 07:13:51;;;;;;;5.20;4.00;;;18.90;62.90;;;;;;5074093;28;20056;-31
2023/12/02 07:16:18;;;;;;;5.15;3.80;;;;;;;;;;5073588;28;20529;-29
2023/12/02 07:18:45;;;;;;;5.50;3.90;;;20.00;63.40;;;;;;5073690;28;20114;-32
2023/12/02 07:21:12;;;;;;;4.07;3.47;;;;;;;;;;5073636;28;20417;-30
2023/12/02 07:23:39;;;;;;;4.97;3.92;;;;;;;;;;5073360;28;20451;-27
2023/12/02 07:26:07;;;;;;;4.97;3.60;;;20.00;43.40;;;;;;5092457;28;20056;-28
2023/12/02 07:28:34;;;;;;;4.65;3.70;;;19.80;53.60;;;;;;5078657;28;20040;-26
2023/12/02 07:31:03;;;;;;;3.90;3.35;;;20.00;43.40;;;;;;5083992;28;20056;-28
2023/12/02 07:33:30;;;;;;;4.07;3.53;;;21.20;64.10;;;;;;5082180;28;20090;-27
2023/12/02 07:35:57;;;;;;;4.65;3.33;;;;;;;;;;5075317;28;20123;-29
2023/12/02 07:38:24;;;;;;;4.60;3.72;;;21.20;63.90;;;;;;5093099;28;20052;-26
2023/12/02 07:40:51;;;;;;;4.40;3.42;;;;;;;;;;5093592;28;20055;-29
2023/12/02 07:43:18;;;;;;;3.85;3.22;;;20.00;63.50;;;;;;5087975;28;20048;-26
2023/12/02 07:45:45;;;;;;;3.95;3.35;;;;;;;;;;5073057;28;20049;-26
2023/12/02 07:48:13;;;;;;;4.10;3.20;;;20.00;60.00;;;;;;5073108;28;20105;-27
2023/12/02 07:50:40;;;;;;;3.95;3.20;;;20.10;51.40;;;;;;5072938;28;20061;-26
2023/12/02 07:53:07;;;;;;;4.22;3.30;;;20.40;63.50;;;;;;5079685;28;20093;-27
2023/12/02 07:55:34;;;;;;;3.83;3.13;;;20.00;56.80;;;;;;5093219;28;20044;-26
2023/12/02 07:58:01;;;;;;;4.00;2.83;;;20.10;63.40;;;;;;5093221;28;20051;-27
2023/12/02 08:00:28;;;;;;;4.45;3.60;;;20.20;63.30;;;;;;5084346;28;20127;-26
2023/12/02 08:02:55;;;;;;;3.85;2.85;;;20.40;63.40;;;;;;5079329;28;20102;-26
2023/12/02 08:05:23;;;;;;;3.78;3.10;;;21.20;44.60;;;;;;5092781;28;20047;-29
2023/12/02 08:07:51;;;;;;;4.13;3.05;;;20.40;49.90;;;;;;5092717;28;20060;-28
2023/12/02 08:10:18;;;;;;;3.88;3.30;;;;;;;;;;5093022;28;20063;-29
2023/12/02 08:12:45;;;;;;;3.90;3.20;;;20.40;62.70;;;;;;5093099;28;20055;-26
2023/12/02 08:15:12;;;;;;;4.53;3.42;;;;;;;;;;5092786;28;20051;-29
2023/12/02 08:17:39;;;;;;;4.15;3.20;;;21.50;63.50;;;;;;5077960;28;20048;-25
2023/12/02 08:20:08;;;;;;;3.65;3.00;;;21.00;62.90;;;;;;5072432;28;20098;-26
2023/12/02 08:22:36;;;;;;;3.55;2.97;;;20.50;62.80;;;;;;5072586;28;20102;-27
2023/12/02 08:25:04;;;;;;;4.32;3.20;;;20.60;62.60;;;;;;5079387;28;20036;-27
2023/12/02 08:27:31;;;;;;;3.58;3.17;;;20.70;46.30;;;;;;5092465;28;20098;-27
2023/12/02 08:29:58;;;;;;;4.38;3.28;;;20.70;62.80;;;;;;5092620;28;20044;-30
2023/12/02 08:32:25;;;;;;;3.75;3.10;;;;;;;;;;5090783;28;20048;-29
2023/12/02 08:34:52;;;;;;;3.58;3.10;;;20.70;62.80;;;;;;5092233;28;20044;-33
2023/12/02 08:37:19;;;;;;;3.83;3.17;;;;;;;;;;5091892;28;20055;-28
2023/12/02 08:39:47;;;;;;;3.60;3.08;;;20.90;44.70;;;;;;5092563;28;20101;-31
2023/12/02 08:42:15;;;;;;;4.10;3.67;;;21.20;62.50;;;;;;5083450;28;20044;-32
2023/12/02 08:44:42;;;;;;;3.42;3.00;;;21.00;62.70;;;;;;5071699;28;20079;-32
2023/12/02 08:47:09;;;;;;;3.53;2.90;;;21.00;45.10;;;;;;5072045;28;20101;-30
2023/12/02 08:49:36;;;;;;;4.20;3.42;;;20.90;62.50;;;;;;5071839;28;20052;-31
2023/12/02 08:52:03;;;;;;;3.70;3.30;;;;;;;;;;5071804;28;20059;-29
2023/12/02 08:54:30;;;;;;;4.80;3.30;;;21.20;62.60;;;;;;5071780;28;20099;-30
2023/12/02 08:56:58;;;;;;;3.35;3.05;;;21.00;42.80;;;;;;5084607;28;20047;-28
2023/12/02 08:59:25;;;;;;;4.47;3.30;;;;;;;;;;5091964;28;20047;-33
2023/12/02 09:01:52;;;;;;;3.70;3.05;;;21.40;62.60;;;;;;5091687;28;20052;-32
2023/12/02 09:04:20;;;;;;;4.63;3.22;;;;;;;;;;5092189;28;20489;-29
2023/12/02 09:06:46;;;;;;;3.80;3.25;;;21.80;62.70;;;;;;5092178;28;20052;-30
2023/12/02 09:09:14;;;;;;;3.55;2.95;;;;;;;;;;5092015;28;20475;-30
2023/12/02 09:11:41;;;;;;;3.92;3.40;;;;;;;;;;5091918;28;20433;-26
2023/12/02 09:14:10;;;;;;;3.75;2.92;;;21.10;61.90;;;;;;5092185;28;20072;-27
2023/12/02 09:16:37;;;;;;;5.35;3.05;;;21.20;62.30;;;;;;5083449;28;20044;-30
2023/12/02 09:19:04;;;;;;;3.80;3.00;;;21.20;62.20;;;;;;5071575;28;20057;-33
2023/12/02 09:21:43;;;;;;;3.85;3.13;;;20.40;61.50;;;;;;5081511;28;20058;-30
2023/12/02 09:24:34;;;;;;;4.20;3.30;;;21.10;47.60;;;;;;5072511;28;20448;-31
2023/12/02 09:27:05;;;;;;;3.83;3.08;;;21.10;61.90;;;;;;5080717;28;20056;-31
2023/12/02 09:29:35;;;;;;;3.97;2.92;;;21.30;62.20;;;;;;5082490;28;20302;-31
2023/12/02 09:32:24;;;;;;;4.30;3.38;;;21.20;42.50;;;;;;5071273;28;20079;-29
2023/12/02 09:35:01;;;;;;;3.38;2.92;;;21.30;42.60;;;;;;5080776;28;20048;-26
2023/12/02 09:37:53;;;;;;;4.13;3.58;;;21.30;62.00;;;;;;5078289;28;20078;-27
2023/12/02 09:40:59;;;;;;;3.45;2.92;;;21.30;42.60;;;;;;5074728;28;20075;-30
2023/12/02 09:43:27;;;;;;;;;;;21.30;43.20;;;;;;5052216;28;20041;-28
2023/12/02 09:46:08;;;;;;;3.72;2.92;;;21.00;61.80;;;;;;5080519;28;19924;-27
2023/12/02 09:48:35;;;;;;;3.65;2.80;;;21.10;46.90;;;;;;5081754;28;20045;-28
2023/12/02 09:51:04;;;;;;;3.50;3.00;;;20.90;61.90;;;;;;5079301;28;20079;-26
2023/12/02 09:53:36;;;;;;;3.28;2.85;;;21.30;42.50;;;;;;5077581;28;20048;-29
2023/12/02 09:56:07;;;;;;;4.07;3.38;;;21.90;48.70;;;;;;5084086;28;20036;-28
2023/12/02 09:58:37;;;;;;;4.13;2.83;;;22.00;62.20;;;;;;5085410;28;20086;-26
2023/12/02 10:01:08;;;;;;;4.00;3.35;;;21.30;42.50;;;;;;5075051;28;20452;-30
2023/12/02 10:04:04;;;;;;;3.80;3.40;;;21.30;42.50;;;;;;5077494;28;20044;-29
2023/12/02 10:06:42;;;;;;;4.25;3.10;;;21.40;62.00;;;;;;5079908;28;20041;-26
2023/12/02 10:09:13;;;;;;;3.75;2.80;;;21.70;61.90;;;;;;5083560;28;20044;-26
2023/12/02 10:11:44;;;;;;;3.35;2.80;;;21.50;61.70;;;;;;5085276;28;20500;-26
2023/12/02 10:14:11;;;;;;;3.50;3.10;;;21.40;62.00;;;;;;5085703;28;20068;-26
2023/12/02 10:16:41;;;;;;;4.47;3.58;;;21.40;62.00;;;;;;5084591;28;20451;-25
2023/12/02 10:19:11;;;;;;;3.25;2.75;;;21.40;61.60;;;;;;5083050;28;20081;-26
2023/12/02 10:21:38;;;;;;;5.32;3.40;;;21.30;42.40;;;;;;5076107;28;20114;-29
2023/12/02 10:24:08;;;;;;;3.95;3.10;;;21.50;61.60;;;;;;5075004;28;20044;-32
2023/12/02 10:26:39;;;;;;;3.53;2.85;;;21.30;61.50;;;;;;5074648;28;20044;-29
2023/12/02 10:29:18;;;;;;;3.42;3.10;;;21.50;43.50;;;;;;5074694;28;20052;-29
2023/12/02 10:31:54;;;;;;;3.40;2.83;;;21.40;61.90;;;;;;5074692;28;20086;-27
2023/12/02 10:34:23;;;;;;;4.57;2.85;;;21.40;61.40;;;;;;5074863;28;20135;-27
2023/12/02 10:36:50;;;;;;;4.15;3.20;;;21.60;62.00;;;;;;5079967;28;20044;-26
2023/12/02 10:39:20;;;;;;;3.70;2.95;;;21.50;42.40;;;;;;5084266;28;20053;-27
2023/12/02 10:41:48;;;;;;;3.58;3.10;;;21.50;61.80;;;;;;5087937;28;20516;-27
2023/12/02 10:44:16;;;;;;;3.83;3.30;;;22.10;62.10;;;;;;5094432;28;20055;-26
2023/12/02 10:46:44;;;;;;;4.03;2.95;;;;;;;;;;5074565;28;20079;-26
2023/12/02 10:49:12;;;;;;;3.58;2.88;;;21.40;46.30;;;;;;5074498;28;20127;-30
2023/12/02 10:51:41;;;;;;;3.75;3.08;;;21.90;61.80;;;;;;5083902;28;20048;-26
2023/12/02 10:54:08;;;;;;;4.22;3.20;;;21.60;61.50;;;;;;5084955;28;20048;-26
2023/12/02 10:56:36;;;;;;;3.97;3.10;;;21.60;61.30;;;;;;5079897;28;20400;-29
2023/12/02 10:59:04;;;;;;;4.28;3.30;;;;;;;;;;5079205;28;20044;-27
2023/12/02 11:01:36;;;;;;;3.47;3.03;;;21.50;58.90;;;;;;5082265;28;20044;-27
2023/12/02 11:04:08;;;;;;;4.75;3.38;;;21.30;42.20;;;;;;5082522;28;20052;-29
2023/12/02 11:06:38;;;;;;;3.53;2.67;;;21.60;46.70;;;;;;5072826;28;20090;-31
2023/12/02 11:09:10;;;;;;;4.25;3.15;;;21.40;61.20;;;;;;5073273;28;20549;-33
2023/12/02 11:11:53;;;;;;;3.78;3.15;;;21.60;61.70;;;;;;5077896;28;20056;-31
2023/12/02 11:14:20;;;;;;;3.58;2.92;;;22.40;62.10;;;;;;5073523;28;20555;-33
2023/12/02 11:16:52;;;;;;;3.65;2.90;;;21.70;42.40;;;;;;5073418;28;20081;-31
2023/12/02 11:19:24;;;;;;;3.10;2.70;;;22.00;51.20;;;;;;5072887;28;20048;-32
2023/12/02 11:22:13;;;;;;;3.47;2.67;;;21.70;42.40;;;;;;5073509;28;20456;-29
2023/12/02 11:24:48;;;;;;;4.25;3.08;;;21.60;42.50;;;;;;5083457;28;20460;-29
2023/12/02 11:27:20;;;;;;;3.85;3.10;;;21.40;61.30;;;;;;5073150;28;20036;-33
2023/12/02 11:29:51;;;;;;;4.57;3.20;;;21.80;61.70;;;;;;5073125;28;20048;-31
2023/12/02 11:32:21;;;;;;;4.25;3.25;;;21.60;60.00;;;;;;5078698;28;20100;-30
2023/12/02 11:34:58;;;;;;;4.53;3.35;;;21.70;61.50;;;;;;5084151;28;20516;-32
2023/12/02 11:37:31;;;;;;;3.50;2.80;;;21.60;61.90;;;;;;5083391;28;20138;-31
2023/12/02 11:40:12;;;;;;;4.25;2.95;;;21.70;42.30;;;;;;5072454;28;20067;-28
2023/12/02 11:42:41;;;;;;;3.90;3.20;;;21.80;50.30;;;;;;5083000;28;20040;-28
2023/12/02 11:45:11;;;;;;;3.85;3.03;;;21.70;42.30;;;;;;5077631;28;20534;-28
2023/12/02 11:47:43;;;;;;;3.38;2.75;;;21.80;61.50;;;;;;5081927;28;20040;-31
2023/12/02 11:50:17;;;;;;;3.55;2.90;;;21.70;42.30;;;;;;5072768;28;20049;-29
2023/12/02 11:52:53;;;;;;;3.65;3.00;;;21.50;61.10;;;;;;5072266;28;20463;-33
2023/12/02 11:55:23;;;;;;;3.75;3.00;;;21.70;51.00;;;;;;5073215;28;20052;-31
2023/12/02 11:57:54;;;;;;;4.38;3.10;;;21.40;60.90;;;;;;5072795;28;20420;-33
2023/12/02 12:00:24;;;;;;;4.13;3.30;;;21.70;61.20;;;;;;5081038;28;20553;-26
2023/12/02 12:03:15;;;;;;;3.08;2.70;;;22.60;43.70;;;;;;5091831;28;20090;-29
2023/12/02 12:05:46;;;;;;;3.83;3.00;;;21.70;61.30;;;;;;5093354;28;20079;-33
2023/12/02 12:08:20;;;;;;;3.67;2.95;;;21.10;41.90;;;;;;5091205;28;20059;-33
2023/12/02 12:10:48;;;;;;;3.35;2.60;;;22.10;50.80;;;;;;5081537;28;20102;-28
2023/12/02 12:13:15;;;;;;;3.92;2.95;;;22.10;44.10;;;;;;5082586;28;20048;-32
2023/12/02 12:15:42;;;;;;;3.40;2.90;;;22.10;43.40;;;;;;5061522;28;20063;-32
2023/12/02 12:18:10;;;;;;;3.47;3.05;;;;;;;;;;5084157;28;20044;-31
2023/12/02 12:20:37;;;;;;;3.13;2.70;;;;;;;;;;5086485;28;20051;-29
2023/12/02 12:23:05;;;;;;;3.70;3.25;;;;;;;;;;5092578;28;20048;-31
2023/12/02 12:25:33;;;;;;;3.75;2.90;;;21.80;44.90;;;;;;5092886;28;20173;-28
2023/12/02 12:28:03;;;;;;;3.55;2.80;;;22.00;52.00;;;;;;5089820;28;20485;-26
2023/12/02 12:30:45;;;;;;;3.15;2.80;;;21.90;48.80;;;;;;5089329;28;20126;-27
2023/12/02 12:33:13;;;;;;;4.22;2.88;;;21.90;54.00;;;;;;5089262;28;20044;-27
2023/12/02 12:35:40;;;;;;;3.83;3.00;;;21.70;60.60;;;;;;5090262;28;20063;-27
2023/12/02 12:38:09;;;;;;;3.20;2.80;;;21.90;42.90;;;;;;5091023;28;20040;-29
2023/12/02 12:40:37;;;;;;;4.97;2.95;;;21.90;43.10;;;;;;5091305;28;20142;-27
2023/12/02 12:43:04;;;;;;;3.63;2.80;;;21.70;44.60;;;;;;5092368;28;20051;-30
2023/12/02 12:45:32;;;;;;;8.00;3.00;;;22.40;62.90;;;;;;5092198;28;20455;-33
2023/12/02 12:48:00;;;;;;;3.78;3.00;;;22.90;60.90;;;;;;5091974;28;20056;-31
2023/12/02 12:50:29;;;;;;;28.23;4.07;;;21.10;62.70;;;;;;5091947;28;20048;-32
2023/12/02 12:52:55;;;;;;;22.02;3.95;;;21.90;51.70;;;;;;5088709;28;20044;-26
2023/12/02 12:55:23;;;;;;;15.82;3.40;;;21.90;43.40;;;;;;5071981;28;20049;-30
2023/12/02 12:57:55;;;;;;;9.35;3.35;;;21.80;43.40;;;;;;5071558;28;20048;-25
2023/12/02 13:00:25;;;;;;;6.43;3.13;;;21.80;43.30;;;;;;5072028;28;20048;-31
2023/12/02 13:03:06;;;;;;;4.32;2.75;;;21.80;63.10;;;;;;5072064;28;20048;-26
2023/12/02 13:05:34;;;;;;;4.85;2.90;;;21.80;43.20;;;;;;5071647;28;20068;-30
2023/12/02 13:08:04;;;;;;;5.10;2.97;;;21.80;62.40;;;;;;5071270;28;20052;-26
2023/12/02 13:10:32;;;;;;;4.22;2.75;;;20.90;62.00;;;;;;5074604;28;20044;-26
2023/12/02 13:13:01;;;;;;;5.68;2.80;;;22.00;62.90;;;;;;5074474;28;20078;-26
2023/12/02 13:15:28;;;;;;;4.13;3.13;;;;;;;;;;5070308;28;20114;-28